sensor_id;sensor_type;location;lat;lon;timestamp;pressure;altitude;pressure_sealevel;temperature;humidity
35151;BME280;55720;51.972;4.624;2022-09-12T00:02:03;102099.72;;;14.37;100.00
35151;BME280;55720;51.972;4.624;2022-09-12T00:04:28;102098.13;;;14.36;100.00
35151;BME280;55720;51.972;4.624;2022-09-12T00:06:53;102102.00;;;14.35;100.00
35151;BME280;55720;51.972;4.624;2022-09-12T00:09:19;102106.38;;;14.44;100.00
35151;BME280;55720;51.972;4.624;2022-09-12T00:11:45;102106.38;;;14.44;100.00
35151;BME280;55720;51.972;4.624;2022-09-12T00:14:14;102110.16;;;14.40;100.00
35151;BME280;55720;51.972;4.624;2022-09-12T00:16:39;102118.41;;;14.31;100.00
35151;BME280;55720;51.972;4.624;2022-09-12T00:19:05;102117.47;;;14.36;100.00
35151;BME280;55720;51.972;4.624;2022-09-12T00:21:31;102111.09;;;14.26;100.00
35151;BME280;55720;51.972;4.624;2022-09-12T00:23:57;102113.53;;;14.28;100.00
35151;BME280;55720;51.972;4.624;2022-09-12T00:26:22;102119.38;;;14.44;100.00
35151;BME280;55720;51.972;4.624;2022-09-12T00:28:48;102126.22;;;14.38;100.00
35151;BME280;55720;51.972;4.624;2022-09-12T00:31:14;102112.06;;;14.30;100.00
35151;BME280;55720;51.972;4.624;2022-09-12T00:33:40;102119.72;;;14.25;100.00
35151;BME280;55720;51.972;4.624;2022-09-12T00:36:06;102115.00;;;14.34;100.00
35151;BME280;55720;51.972;4.624;2022-09-12T00:38:31;102110.13;;;14.48;100.00
35151;BME280;55720;51.972;4.624;2022-09-12T00:40:58;102117.09;;;14.54;100.00
35151;BME280;55720;51.972;4.624;2022-09-12T00:45:58;102117.44;;;14.44;100.00
35151;BME280;55720;51.972;4.624;2022-09-12T00:48:28;102116.78;;;14.47;100.00
35151;BME280;55720;51.972;4.624;2022-09-12T00:50:56;102113.34;;;14.59;100.00
35151;BME280;55720;51.972;4.624;2022-09-12T00:53:21;102116.13;;;14.50;100.00
35151;BME280;55720;51.972;4.624;2022-09-12T00:55:46;102113.69;;;14.40;100.00
35151;BME280;55720;51.972;4.624;2022-09-12T00:58:21;102119.72;;;14.42;100.00
35151;BME280;55720;51.972;4.624;2022-09-12T01:00:47;102099.09;;;14.40;100.00
35151;BME280;55720;51.972;4.624;2022-09-12T01:03:13;102105.56;;;14.44;100.00
35151;BME280;55720;51.972;4.624;2022-09-12T01:05:41;102104.94;;;14.47;100.00
35151;BME280;55720;51.972;4.624;2022-09-12T01:08:08;102108.16;;;14.49;100.00
35151;BME280;55720;51.972;4.624;2022-09-12T01:10:35;102113.06;;;14.43;100.00
35151;BME280;55720;51.972;4.624;2022-09-12T01:13:05;102107.00;;;14.58;100.00
35151;BME280;55720;51.972;4.624;2022-09-12T01:15:30;102098.38;;;14.60;100.00
35151;BME280;55720;51.972;4.624;2022-09-12T01:20:50;102094.19;;;14.54;100.00
35151;BME280;55720;51.972;4.624;2022-09-12T01:26:08;102061.94;;;14.66;100.00
35151;BME280;55720;51.972;4.624;2022-09-12T01:31:21;102052.06;;;14.48;100.00
35151;BME280;55720;51.972;4.624;2022-09-12T01:33:56;102040.03;;;14.53;100.00
35151;BME280;55720;51.972;4.624;2022-09-12T01:49:06;101989.72;;;14.21;100.00
35151;BME280;55720;51.972;4.624;2022-09-12T01:51:49;101985.19;;;14.17;100.00
35151;BME280;55720;51.972;4.624;2022-09-12T01:54:18;101970.38;;;14.21;100.00
35151;BME280;55720;51.972;4.624;2022-09-12T01:56:45;101970.72;;;14.11;100.00
35151;BME280;55720;51.972;4.624;2022-09-12T01:59:14;101953.34;;;14.11;100.00
35151;BME280;55720;51.972;4.624;2022-09-12T02:01:51;101945.41;;;14.09;100.00
35151;BME280;55720;51.972;4.624;2022-09-12T02:04:20;101945.72;;;14.08;100.00
35151;BME280;55720;51.972;4.624;2022-09-12T02:07:07;101947.84;;;14.02;100.00
35151;BME280;55720;51.972;4.624;2022-09-12T02:09:36;101934.84;;;14.03;100.00
35151;BME280;55720;51.972;4.624;2022-09-12T02:12:03;101932.72;;;14.08;100.00
35151;BME280;55720;51.972;4.624;2022-09-12T02:14:31;101924.59;;;14.12;100.00
35151;BME280;55720;51.972;4.624;2022-09-12T02:16:58;101918.22;;;14.28;100.00
35151;BME280;55720;51.972;4.624;2022-09-12T02:19:27;101914.78;;;14.23;100.00
35151;BME280;55720;51.972;4.624;2022-09-12T02:21:58;101913.50;;;14.20;100.00
35151;BME280;55720;51.972;4.624;2022-09-12T02:24:27;101908.00;;;14.20;100.00
35151;BME280;55720;51.972;4.624;2022-09-12T02:26:58;101906.88;;;14.13;100.00
35151;BME280;55720;51.972;4.624;2022-09-12T02:29:25;101895.84;;;14.04;100.00
35151;BME280;55720;51.972;4.624;2022-09-12T02:31:55;101897.16;;;14.07;100.00
35151;BME280;55720;51.972;4.624;2022-09-12T02:34:43;101889.66;;;14.16;100.00
35151;BME280;55720;51.972;4.624;2022-09-12T02:39:38;101886.59;;;14.09;100.00
35151;BME280;55720;51.972;4.624;2022-09-12T02:42:03;101879.44;;;14.08;100.00
35151;BME280;55720;51.972;4.624;2022-09-12T02:44:30;101877.16;;;14.10;100.00
35151;BME280;55720;51.972;4.624;2022-09-12T02:47:07;101878.75;;;14.19;100.00
35151;BME280;55720;51.972;4.624;2022-09-12T02:49:35;101879.56;;;14.20;100.00
35151;BME280;55720;51.972;4.624;2022-09-12T02:52:00;101874.78;;;14.29;100.00
35151;BME280;55720;51.972;4.624;2022-09-12T02:54:26;101875.31;;;14.22;100.00
35151;BME280;55720;51.972;4.624;2022-09-12T02:56:51;101869.31;;;14.20;100.00
35151;BME280;55720;51.972;4.624;2022-09-12T02:59:17;101870.94;;;14.21;100.00
35151;BME280;55720;51.972;4.624;2022-09-12T03:18:04;101856.41;;;14.33;100.00
35151;BME280;55720;51.972;4.624;2022-09-12T03:20:42;101857.22;;;14.34;100.00
35151;BME280;55720;51.972;4.624;2022-09-12T03:23:13;101853.97;;;14.40;100.00
35151;BME280;55720;51.972;4.624;2022-09-12T03:25:43;101859.97;;;14.42;100.00
35151;BME280;55720;51.972;4.624;2022-09-12T03:28:10;101855.13;;;14.39;100.00
35151;BME280;55720;51.972;4.624;2022-09-12T03:30:38;101857.53;;;14.41;100.00
35151;BME280;55720;51.972;4.624;2022-09-12T03:33:05;101851.19;;;14.40;100.00
35151;BME280;55720;51.972;4.624;2022-09-12T03:35:30;101847.78;;;14.43;100.00
35151;BME280;55720;51.972;4.624;2022-09-12T03:37:55;101846.31;;;14.46;100.00
35151;BME280;55720;51.972;4.624;2022-09-12T03:40:20;101856.88;;;14.44;100.00
35151;BME280;55720;51.972;4.624;2022-09-12T03:42:46;101858.03;;;14.43;100.00
35151;BME280;55720;51.972;4.624;2022-09-12T03:45:11;101861.59;;;14.43;100.00
35151;BME280;55720;51.972;4.624;2022-09-12T03:47:36;101859.31;;;14.45;100.00
35151;BME280;55720;51.972;4.624;2022-09-12T03:50:02;101860.94;;;14.46;100.00
35151;BME280;55720;51.972;4.624;2022-09-12T03:52:27;101859.63;;;14.44;100.00
35151;BME280;55720;51.972;4.624;2022-09-12T03:54:52;101844.88;;;14.40;100.00
35151;BME280;55720;51.972;4.624;2022-09-12T03:57:18;101849.09;;;14.37;100.00
35151;BME280;55720;51.972;4.624;2022-09-12T03:59:43;101853.19;;;14.40;100.00
35151;BME280;55720;51.972;4.624;2022-09-12T04:02:08;101848.63;;;14.35;100.00
35151;BME280;55720;51.972;4.624;2022-09-12T04:04:36;101859.03;;;14.38;100.00
35151;BME280;55720;51.972;4.624;2022-09-12T04:07:02;101851.56;;;14.39;100.00
35151;BME280;55720;51.972;4.624;2022-09-12T04:09:27;101847.16;;;14.38;100.00
35151;BME280;55720;51.972;4.624;2022-09-12T04:11:52;101848.78;;;14.39;100.00
35151;BME280;55720;51.972;4.624;2022-09-12T04:14:17;101851.88;;;14.37;100.00
35151;BME280;55720;51.972;4.624;2022-09-12T04:16:43;101864.88;;;14.37;100.00
35151;BME280;55720;51.972;4.624;2022-09-12T04:19:09;101855.94;;;14.40;100.00
35151;BME280;55720;51.972;4.624;2022-09-12T04:21:35;101846.69;;;14.36;100.00
35151;BME280;55720;51.972;4.624;2022-09-12T04:24:00;101851.09;;;14.28;100.00
35151;BME280;55720;51.972;4.624;2022-09-12T04:26:26;101850.13;;;14.24;100.00
35151;BME280;55720;51.972;4.624;2022-09-12T04:28:53;101857.91;;;14.22;100.00
35151;BME280;55720;51.972;4.624;2022-09-12T04:31:21;101857.00;;;14.18;100.00
35151;BME280;55720;51.972;4.624;2022-09-12T04:33:57;101851.28;;;14.14;100.00
35151;BME280;55720;51.972;4.624;2022-09-12T04:36:22;101852.63;;;14.08;100.00
35151;BME280;55720;51.972;4.624;2022-09-12T04:38:48;101847.31;;;14.03;100.00
35151;BME280;55720;51.972;4.624;2022-09-12T04:41:17;101848.25;;;14.07;100.00
35151;BME280;55720;51.972;4.624;2022-09-12T04:43:43;101858.00;;;14.05;100.00
35151;BME280;55720;51.972;4.624;2022-09-12T04:46:11;101855.75;;;14.07;100.00
35151;BME280;55720;51.972;4.624;2022-09-12T04:48:37;101851.50;;;14.09;100.00
35151;BME280;55720;51.972;4.624;2022-09-12T04:51:09;101849.41;;;14.06;100.00
35151;BME280;55720;51.972;4.624;2022-09-12T04:53:34;101853.59;;;14.12;100.00
35151;BME280;55720;51.972;4.624;2022-09-12T04:56:02;101865.75;;;14.20;100.00
35151;BME280;55720;51.972;4.624;2022-09-12T04:58:27;101859.78;;;14.09;100.00
35151;BME280;55720;51.972;4.624;2022-09-12T05:00:52;101854.28;;;14.01;100.00
35151;BME280;55720;51.972;4.624;2022-09-12T05:03:18;101856.44;;;13.95;100.00
35151;BME280;55720;51.972;4.624;2022-09-12T05:05:43;101851.91;;;13.82;100.00
35151;BME280;55720;51.972;4.624;2022-09-12T05:08:08;101851.13;;;13.82;100.00
35151;BME280;55720;51.972;4.624;2022-09-12T05:10:33;101848.31;;;13.90;100.00
35151;BME280;55720;51.972;4.624;2022-09-12T05:12:59;101853.06;;;13.81;100.00
35151;BME280;55720;51.972;4.624;2022-09-12T05:15:24;101859.41;;;13.73;100.00
35151;BME280;55720;51.972;4.624;2022-09-12T05:17:50;101858.75;;;13.67;100.00
35151;BME280;55720;51.972;4.624;2022-09-12T05:20:15;101854.91;;;13.60;100.00
35151;BME280;55720;51.972;4.624;2022-09-12T05:22:41;101852.16;;;13.60;100.00
35151;BME280;55720;51.972;4.624;2022-09-12T05:25:06;101857.78;;;13.72;100.00
35151;BME280;55720;51.972;4.624;2022-09-12T05:27:32;101861.72;;;13.62;100.00
35151;BME280;55720;51.972;4.624;2022-09-12T05:29:57;101857.84;;;13.55;100.00
35151;BME280;55720;51.972;4.624;2022-09-12T05:32:23;101860.75;;;13.58;100.00
35151;BME280;55720;51.972;4.624;2022-09-12T05:34:48;101856.03;;;13.59;100.00
35151;BME280;55720;51.972;4.624;2022-09-12T05:37:13;101862.34;;;13.68;100.00
35151;BME280;55720;51.972;4.624;2022-09-12T05:39:39;101860.22;;;13.73;100.00
35151;BME280;55720;51.972;4.624;2022-09-12T05:42:04;101873.69;;;13.75;100.00
35151;BME280;55720;51.972;4.624;2022-09-12T05:44:30;101864.44;;;13.79;100.00
35151;BME280;55720;51.972;4.624;2022-09-12T05:46:55;101868.81;;;13.80;100.00
35151;BME280;55720;51.972;4.624;2022-09-12T05:49:20;101864.44;;;13.79;100.00
35151;BME280;55720;51.972;4.624;2022-09-12T05:51:46;101862.16;;;13.82;100.00
35151;BME280;55720;51.972;4.624;2022-09-12T05:54:12;101873.34;;;13.85;100.00
35151;BME280;55720;51.972;4.624;2022-09-12T05:56:38;101885.84;;;13.91;100.00
35151;BME280;55720;51.972;4.624;2022-09-12T05:59:05;101896.53;;;13.93;100.00
35151;BME280;55720;51.972;4.624;2022-09-12T06:01:31;101904.13;;;14.04;100.00
35151;BME280;55720;51.972;4.624;2022-09-12T06:03:57;101917.44;;;14.11;100.00
35151;BME280;55720;51.972;4.624;2022-09-12T06:06:27;101922.94;;;14.19;100.00
35151;BME280;55720;51.972;4.624;2022-09-12T06:08:54;101929.25;;;14.28;100.00
35151;BME280;55720;51.972;4.624;2022-09-12T06:11:21;101939.81;;;14.35;100.00
35151;BME280;55720;51.972;4.624;2022-09-12T06:13:47;101944.00;;;14.41;100.00
35151;BME280;55720;51.972;4.624;2022-09-12T06:16:14;101946.22;;;14.56;100.00
35151;BME280;55720;51.972;4.624;2022-09-12T06:18:39;101958.31;;;14.72;100.00
35151;BME280;55720;51.972;4.624;2022-09-12T06:21:09;101951.47;;;14.78;100.00
35151;BME280;55720;51.972;4.624;2022-09-12T06:23:35;101946.91;;;14.83;100.00
35151;BME280;55720;51.972;4.624;2022-09-12T06:26:01;101948.56;;;15.04;100.00
35151;BME280;55720;51.972;4.624;2022-09-12T06:28:28;101930.47;;;15.07;100.00
35151;BME280;55720;51.972;4.624;2022-09-12T06:30:53;101909.44;;;15.14;100.00
35151;BME280;55720;51.972;4.624;2022-09-12T06:33:25;101890.91;;;15.27;100.00
35151;BME280;55720;51.972;4.624;2022-09-12T06:35:50;101871.91;;;15.25;100.00
35151;BME280;55720;51.972;4.624;2022-09-12T06:38:15;101851.97;;;15.32;100.00
35151;BME280;55720;51.972;4.624;2022-09-12T06:40:41;101844.88;;;15.43;100.00
35151;BME280;55720;51.972;4.624;2022-09-12T06:43:11;101850.13;;;15.57;100.00
35151;BME280;55720;51.972;4.624;2022-09-12T06:45:37;101842.81;;;15.73;100.00
35151;BME280;55720;51.972;4.624;2022-09-12T06:48:02;101838.91;;;15.86;100.00
35151;BME280;55720;51.972;4.624;2022-09-12T06:50:28;101826.91;;;16.06;100.00
35151;BME280;55720;51.972;4.624;2022-09-12T06:52:53;101819.19;;;16.24;100.00
35151;BME280;55720;51.972;4.624;2022-09-12T06:55:19;101791.34;;;16.45;100.00
35151;BME280;55720;51.972;4.624;2022-09-12T06:57:44;101764.41;;;16.69;100.00
35151;BME280;55720;51.972;4.624;2022-09-12T07:00:09;101721.53;;;17.54;100.00
35151;BME280;55720;51.972;4.624;2022-09-12T07:02:35;101645.69;;;18.19;100.00
35151;BME280;55720;51.972;4.624;2022-09-12T07:05:00;101590.53;;;18.02;100.00
35151;BME280;55720;51.972;4.624;2022-09-12T07:07:25;101523.47;;;17.65;100.00
35151;BME280;55720;51.972;4.624;2022-09-12T07:09:50;101488.91;;;17.47;100.00
35151;BME280;55720;51.972;4.624;2022-09-12T07:12:16;101468.66;;;17.62;100.00
35151;BME280;55720;51.972;4.624;2022-09-12T07:14:41;101442.44;;;17.44;100.00
35151;BME280;55720;51.972;4.624;2022-09-12T07:17:06;101428.19;;;17.61;100.00
35151;BME280;55720;51.972;4.624;2022-09-12T07:19:32;101418.88;;;17.54;100.00
35151;BME280;55720;51.972;4.624;2022-09-12T07:21:58;101407.91;;;17.42;100.00
35151;BME280;55720;51.972;4.624;2022-09-12T07:24:23;101405.78;;;17.74;100.00
35151;BME280;55720;51.972;4.624;2022-09-12T07:26:48;101391.38;;;17.87;100.00
35151;BME280;55720;51.972;4.624;2022-09-12T07:29:14;101379.19;;;18.14;100.00
35151;BME280;55720;51.972;4.624;2022-09-12T07:31:42;101358.56;;;18.15;100.00
35151;BME280;55720;51.972;4.624;2022-09-12T07:34:07;101340.66;;;18.39;100.00
35151;BME280;55720;51.972;4.624;2022-09-12T07:36:33;101333.84;;;18.59;100.00
35151;BME280;55720;51.972;4.624;2022-09-12T07:38:58;101316.63;;;18.50;100.00
35151;BME280;55720;51.972;4.624;2022-09-12T07:41:24;101304.66;;;18.73;100.00
35151;BME280;55720;51.972;4.624;2022-09-12T07:43:54;101296.06;;;18.85;100.00
35151;BME280;55720;51.972;4.624;2022-09-12T07:46:20;101284.34;;;18.98;100.00
35151;BME280;55720;51.972;4.624;2022-09-12T07:48:49;101281.16;;;19.00;100.00
35151;BME280;55720;51.972;4.624;2022-09-12T07:51:15;101283.22;;;19.06;100.00
35151;BME280;55720;51.972;4.624;2022-09-12T07:53:41;101278.25;;;19.23;100.00
35151;BME280;55720;51.972;4.624;2022-09-12T07:56:07;101279.88;;;19.24;100.00
35151;BME280;55720;51.972;4.624;2022-09-12T07:58:34;101280.09;;;19.41;100.00
35151;BME280;55720;51.972;4.624;2022-09-12T08:01:08;101278.19;;;19.49;100.00
35151;BME280;55720;51.972;4.624;2022-09-12T08:03:34;101279.56;;;19.69;100.00
35151;BME280;55720;51.972;4.624;2022-09-12T08:06:06;101279.97;;;19.68;100.00
35151;BME280;55720;51.972;4.624;2022-09-12T08:08:33;101276.69;;;19.58;100.00
35151;BME280;55720;51.972;4.624;2022-09-12T08:10:59;101279.00;;;19.97;100.00
35151;BME280;55720;51.972;4.624;2022-09-12T08:13:28;101281.66;;;20.95;100.00
35151;BME280;55720;51.972;4.624;2022-09-12T08:15:57;101250.38;;;22.22;100.00
35151;BME280;55720;51.972;4.624;2022-09-12T08:18:24;101221.75;;;24.56;100.00
35151;BME280;55720;51.972;4.624;2022-09-12T08:20:54;101217.72;;;26.41;100.00
35151;BME280;55720;51.972;4.624;2022-09-12T08:23:19;101252.81;;;27.87;100.00
35151;BME280;55720;51.972;4.624;2022-09-12T08:25:47;101424.09;;;28.42;100.00
35151;BME280;55720;51.972;4.624;2022-09-12T08:28:12;101591.97;;;28.61;100.00
35151;BME280;55720;51.972;4.624;2022-09-12T08:30:38;101628.28;;;28.43;100.00
35151;BME280;55720;51.972;4.624;2022-09-12T08:33:03;101629.16;;;28.40;100.00
35151;BME280;55720;51.972;4.624;2022-09-12T08:35:28;101627.81;;;29.00;100.00
35151;BME280;55720;51.972;4.624;2022-09-12T08:37:54;101624.06;;;28.70;100.00
35151;BME280;55720;51.972;4.624;2022-09-12T08:40:19;101640.63;;;27.43;100.00
35151;BME280;55720;51.972;4.624;2022-09-12T08:42:51;101630.81;;;28.37;100.00
35151;BME280;55720;51.972;4.624;2022-09-12T08:45:19;101636.13;;;27.49;100.00
35151;BME280;55720;51.972;4.624;2022-09-12T08:47:45;101620.81;;;28.52;100.00
35151;BME280;55720;51.972;4.624;2022-09-12T08:53:11;101623.03;;;27.35;100.00
35151;BME280;55720;51.972;4.624;2022-09-12T08:58:27;101637.50;;;27.37;100.00
35151;BME280;55720;51.972;4.624;2022-09-12T09:01:06;101638.16;;;27.49;100.00
35151;BME280;55720;51.972;4.624;2022-09-12T09:03:45;101634.56;;;28.11;100.00
35151;BME280;55720;51.972;4.624;2022-09-12T09:09:22;101652.94;;;26.76;100.00
35151;BME280;55720;51.972;4.624;2022-09-12T09:17:06;101647.59;;;26.21;100.00
35151;BME280;55720;51.972;4.624;2022-09-12T09:19:36;101645.03;;;25.04;100.00
35151;BME280;55720;51.972;4.624;2022-09-12T09:24:32;101657.13;;;23.85;100.00
35151;BME280;55720;51.972;4.624;2022-09-12T09:27:01;101654.28;;;23.99;100.00
35151;BME280;55720;51.972;4.624;2022-09-12T09:29:32;101642.28;;;23.92;100.00
35151;BME280;55720;51.972;4.624;2022-09-12T09:32:02;101631.09;;;23.78;100.00
35151;BME280;55720;51.972;4.624;2022-09-12T09:34:29;101639.94;;;23.62;100.00
35151;BME280;55720;51.972;4.624;2022-09-12T09:42:07;101631.50;;;23.55;100.00
35151;BME280;55720;51.972;4.624;2022-09-12T09:44:35;101635.91;;;23.17;100.00
35151;BME280;55720;51.972;4.624;2022-09-12T09:47:01;101634.75;;;23.43;100.00
35151;BME280;55720;51.972;4.624;2022-09-12T09:49:27;101625.50;;;23.74;100.00
35151;BME280;55720;51.972;4.624;2022-09-12T09:51:54;101618.69;;;23.75;100.00
35151;BME280;55720;51.972;4.624;2022-09-12T09:54:23;101610.63;;;23.88;100.00
35151;BME280;55720;51.972;4.624;2022-09-12T09:56:49;101616.69;;;23.72;100.00
35151;BME280;55720;51.972;4.624;2022-09-12T09:59:16;101619.88;;;23.71;100.00
35151;BME280;55720;51.972;4.624;2022-09-12T10:01:54;101617.09;;;23.53;100.00
35151;BME280;55720;51.972;4.624;2022-09-12T10:04:22;101621.09;;;23.59;100.00
35151;BME280;55720;51.972;4.624;2022-09-12T10:06:52;101622.28;;;23.83;100.00
35151;BME280;55720;51.972;4.624;2022-09-12T10:09:36;101619.06;;;23.77;100.00
35151;BME280;55720;51.972;4.624;2022-09-12T10:12:23;101605.44;;;23.86;100.00
35151;BME280;55720;51.972;4.624;2022-09-12T10:15:00;101613.84;;;23.90;100.00
35151;BME280;55720;51.972;4.624;2022-09-12T10:17:42;101608.97;;;24.15;100.00
35151;BME280;55720;51.972;4.624;2022-09-12T10:21:08;101600.38;;;24.54;100.00
35151;BME280;55720;51.972;4.624;2022-09-12T10:25:47;101599.16;;;24.55;100.00
35151;BME280;55720;51.972;4.624;2022-09-12T10:28:21;101592.28;;;24.67;100.00
35151;BME280;55720;51.972;4.624;2022-09-12T10:30:50;101587.75;;;24.87;100.00
35151;BME280;55720;51.972;4.624;2022-09-12T10:33:15;101582.31;;;24.59;100.00
35151;BME280;55720;51.972;4.624;2022-09-12T10:35:41;101572.16;;;24.75;100.00
35151;BME280;55720;51.972;4.624;2022-09-12T10:38:26;101574.63;;;24.66;100.00
35151;BME280;55720;51.972;4.624;2022-09-12T10:40:55;101588.19;;;24.78;100.00
35151;BME280;55720;51.972;4.624;2022-09-12T10:45:48;101592.63;;;24.76;100.00
35151;BME280;55720;51.972;4.624;2022-09-12T10:48:27;101592.53;;;24.93;100.00
35151;BME280;55720;51.972;4.624;2022-09-12T10:50:53;101592.19;;;24.88;100.00
35151;BME280;55720;51.972;4.624;2022-09-12T11:04:14;101575.47;;;25.63;100.00
35151;BME280;55720;51.972;4.624;2022-09-12T11:12:31;101577.31;;;25.76;100.00
35151;BME280;55720;51.972;4.624;2022-09-12T11:17:41;101566.66;;;25.94;100.00
35151;BME280;55720;51.972;4.624;2022-09-12T11:20:22;101560.59;;;26.00;100.00
35151;BME280;55720;51.972;4.624;2022-09-12T11:25:44;101560.69;;;26.23;100.00
35151;BME280;55720;51.972;4.624;2022-09-12T11:33:27;101554.50;;;26.35;100.00
35151;BME280;55720;51.972;4.624;2022-09-12T11:35:57;101552.91;;;26.34;100.00
35151;BME280;55720;51.972;4.624;2022-09-12T11:41:01;101549.59;;;26.69;100.00
35151;BME280;55720;51.972;4.624;2022-09-12T11:43:31;101551.75;;;26.31;100.00
35151;BME280;55720;51.972;4.624;2022-09-12T11:46:09;101551.22;;;26.10;100.00
35151;BME280;55720;51.972;4.624;2022-09-12T11:48:39;101554.41;;;26.12;100.00
35151;BME280;55720;51.972;4.624;2022-09-12T11:51:16;101564.25;;;25.97;100.00
35151;BME280;55720;51.972;4.624;2022-09-12T11:53:42;101547.72;;;26.32;100.00
35151;BME280;55720;51.972;4.624;2022-09-12T11:56:15;101548.69;;;26.49;100.00
35151;BME280;55720;51.972;4.624;2022-09-12T11:58:41;101533.53;;;26.66;100.00
35151;BME280;55720;51.972;4.624;2022-09-12T12:03:36;101531.63;;;26.33;100.00
35151;BME280;55720;51.972;4.624;2022-09-12T12:06:06;101539.84;;;26.20;100.00
35151;BME280;55720;51.972;4.624;2022-09-12T12:08:38;101533.75;;;26.52;100.00
35151;BME280;55720;51.972;4.624;2022-09-12T12:11:04;101532.63;;;26.46;100.00
35151;BME280;55720;51.972;4.624;2022-09-12T12:13:32;101535.13;;;26.94;100.00
35151;BME280;55720;51.972;4.624;2022-09-12T12:18:40;101506.59;;;26.65;100.00
35151;BME280;55720;51.972;4.624;2022-09-12T12:29:03;101508.72;;;26.84;100.00
35151;BME280;55720;51.972;4.624;2022-09-12T12:31:29;101491.81;;;27.08;100.00
35151;BME280;55720;51.972;4.624;2022-09-12T12:34:02;101495.16;;;26.99;100.00
35151;BME280;55720;51.972;4.624;2022-09-12T12:38:53;101505.09;;;27.30;100.00
35151;BME280;55720;51.972;4.624;2022-09-12T12:43:44;101496.28;;;27.05;100.00
35151;BME280;55720;51.972;4.624;2022-09-12T12:46:14;101503.47;;;26.86;100.00
35151;BME280;55720;51.972;4.624;2022-09-12T12:48:59;101485.56;;;27.20;100.00
35151;BME280;55720;51.972;4.624;2022-09-12T12:53:52;101479.28;;;27.32;100.00
35151;BME280;55720;51.972;4.624;2022-09-12T12:59:02;101472.09;;;27.08;100.00
35151;BME280;55720;51.972;4.624;2022-09-12T13:01:29;101470.06;;;27.08;100.00
35151;BME280;55720;51.972;4.624;2022-09-12T13:03:55;101477.53;;;26.95;100.00
35151;BME280;55720;51.972;4.624;2022-09-12T13:09:05;101472.41;;;26.90;100.00
35151;BME280;55720;51.972;4.624;2022-09-12T13:11:35;101476.31;;;27.19;100.00
35151;BME280;55720;51.972;4.624;2022-09-12T13:14:06;101474.03;;;27.11;100.00
35151;BME280;55720;51.972;4.624;2022-09-12T13:16:37;101468.06;;;27.28;100.00
35151;BME280;55720;51.972;4.624;2022-09-12T13:19:04;101460.25;;;27.16;100.00
35151;BME280;55720;51.972;4.624;2022-09-12T13:21:30;101466.19;;;27.22;100.00
35151;BME280;55720;51.972;4.624;2022-09-12T13:24:11;101467.78;;;27.23;100.00
35151;BME280;55720;51.972;4.624;2022-09-12T13:26:41;101448.56;;;27.57;100.00
35151;BME280;55720;51.972;4.624;2022-09-12T13:31:39;101446.22;;;27.13;100.00
35151;BME280;55720;51.972;4.624;2022-09-12T13:34:06;101449.63;;;27.24;100.00
35151;BME280;55720;51.972;4.624;2022-09-12T13:44:17;101421.97;;;27.58;100.00
35151;BME280;55720;51.972;4.624;2022-09-12T13:46:44;101404.69;;;27.56;100.00
35151;BME280;55720;51.972;4.624;2022-09-12T13:52:03;101403.59;;;27.50;100.00
35151;BME280;55720;51.972;4.624;2022-09-12T13:54:30;101416.56;;;27.24;100.00
35151;BME280;55720;51.972;4.624;2022-09-12T13:56:57;101421.34;;;27.08;100.00
35151;BME280;55720;51.972;4.624;2022-09-12T13:59:24;101418.25;;;27.42;100.00
35151;BME280;55720;51.972;4.624;2022-09-12T14:01:49;101406.47;;;27.66;100.00
35151;BME280;55720;51.972;4.624;2022-09-12T14:06:58;101380.06;;;28.28;100.00
35151;BME280;55720;51.972;4.624;2022-09-12T14:09:26;101366.16;;;28.02;100.00
35151;BME280;55720;51.972;4.624;2022-09-12T14:11:53;101356.75;;;27.72;100.00
35151;BME280;55720;51.972;4.624;2022-09-12T14:14:30;101382.22;;;26.90;100.00
35151;BME280;55720;51.972;4.624;2022-09-12T14:16:57;101405.38;;;27.01;100.00
35151;BME280;55720;51.972;4.624;2022-09-12T14:19:22;101386.50;;;26.75;100.00
35151;BME280;55720;51.972;4.624;2022-09-12T14:21:50;101388.44;;;26.78;100.00
35151;BME280;55720;51.972;4.624;2022-09-12T14:24:16;101391.09;;;26.42;100.00
35151;BME280;55720;51.972;4.624;2022-09-12T14:26:41;101395.47;;;26.20;100.00
35151;BME280;55720;51.972;4.624;2022-09-12T14:29:08;101407.50;;;26.47;100.00
35151;BME280;55720;51.972;4.624;2022-09-12T14:31:37;101397.88;;;26.68;100.00
35151;BME280;55720;51.972;4.624;2022-09-12T14:36:51;101402.47;;;26.81;100.00
35151;BME280;55720;51.972;4.624;2022-09-12T14:41:44;101397.94;;;26.41;100.00
35151;BME280;55720;51.972;4.624;2022-09-12T14:44:18;101385.22;;;26.33;100.00
35151;BME280;55720;51.972;4.624;2022-09-12T14:46:44;101390.03;;;26.06;100.00
35151;BME280;55720;51.972;4.624;2022-09-12T14:51:47;101401.13;;;26.43;100.00
35151;BME280;55720;51.972;4.624;2022-09-12T14:59:40;101386.63;;;26.21;100.00
35151;BME280;55720;51.972;4.624;2022-09-12T15:04:39;101392.75;;;25.86;100.00
35151;BME280;55720;51.972;4.624;2022-09-12T15:09:49;101396.56;;;25.99;100.00
35151;BME280;55720;51.972;4.624;2022-09-12T15:12:14;101373.69;;;25.70;100.00
35151;BME280;55720;51.972;4.624;2022-09-12T15:14:40;101382.97;;;25.67;100.00
35151;BME280;55720;51.972;4.624;2022-09-12T15:17:05;101379.59;;;25.45;100.00
35151;BME280;55720;51.972;4.624;2022-09-12T15:19:30;101377.91;;;25.55;100.00
35151;BME280;55720;51.972;4.624;2022-09-12T15:21:55;101373.50;;;25.20;100.00
35151;BME280;55720;51.972;4.624;2022-09-12T15:24:21;101389.28;;;25.07;100.00